Time;durP1;ratioP1;P1;durP2;ratioP2;P2;SDS_P1;SDS_P2;PMS_P1;PMS_P2;Temp;Humidity;BMP_temperature;BMP_pressure;BME280_temperature;BME280_humidity;BME280_pressure;Samples;Min_cycle;Max_cycle;Signal;HPM_P1;HPM_P2
2023/12/24 00:00:31;;;;;;;18.40;10.83;;;9.30;96.70;;;;;;6003768;23;20422;-64
2023/12/24 00:03:10;;;;;;;18.23;10.27;;;9.30;96.70;;;;;;5938337;23;20471;-65
2023/12/24 00:06:18;;;;;;;15.85;9.48;;;9.30;96.70;;;;;;6003118;23;20172;-65
2023/12/24 00:08:47;;;;;;;;;;;9.30;96.70;;;;;;6009541;23;20032;-65
2023/12/24 00:12:20;;;;;;;20.48;8.68;;;9.20;96.70;;;;;;6032524;23;19929;-65
2023/12/24 00:14:54;;;;;;;13.40;7.78;;;9.20;96.70;;;;;;6032354;23;20198;-64
2023/12/24 00:25:56;;;;;;;11.68;7.47;;;9.20;96.70;;;;;;6033074;23;20053;-65
2023/12/24 00:28:35;;;;;;;15.10;8.20;;;9.10;96.70;;;;;;6211888;23;20025;-65
2023/12/24 00:35:07;;;;;;;12.90;7.97;;;9.00;96.70;;;;;;6200219;23;20035;-65
2023/12/24 00:37:37;;;;;;;15.00;6.85;;;9.00;96.70;;;;;;6210322;23;20071;-65
2023/12/24 00:49:32;;;;;;;;;;;;;;;;;;;;;
2023/12/24 01:00:29;;;;;;;13.75;5.68;;;9.30;96.70;;;;;;6166517;22;20415;-65
2023/12/24 01:03:45;;;;;;;10.48;5.10;;;9.40;96.70;;;;;;6185953;23;20447;-65
2023/12/24 01:07:05;;;;;;;13.82;5.05;;;9.40;96.70;;;;;;6211545;23;20047;-65
2023/12/24 01:09:36;;;;;;;10.18;4.88;;;9.40;96.70;;;;;;6185136;23;20048;-64
2023/12/24 01:12:08;;;;;;;9.95;4.47;;;9.40;96.70;;;;;;6211165;23;20023;-65
2023/12/24 01:14:37;;;;;;;10.80;5.00;;;9.40;96.70;;;;;;6211603;23;20028;-64
2023/12/24 01:17:07;;;;;;;11.38;5.97;;;9.40;96.70;;;;;;6159818;23;20035;-64
2023/12/24 01:19:36;;;;;;;10.80;6.60;;;9.40;96.70;;;;;;6184819;23;20020;-64
2023/12/24 01:22:08;;;;;;;11.27;6.15;;;9.40;96.70;;;;;;6185208;23;20024;-64
2023/12/24 01:25:19;;;;;;;12.68;6.30;;;9.40;96.70;;;;;;6189309;23;20024;-64
2023/12/24 01:28:24;;;;;;;9.93;6.43;;;9.50;96.70;;;;;;6210466;23;20622;-64
2023/12/24 01:30:53;;;;;;;11.32;6.57;;;9.50;96.70;;;;;;6184489;23;20025;-64
2023/12/24 01:33:23;;;;;;;12.45;7.22;;;9.50;96.70;;;;;;6209796;23;20703;-64
2023/12/24 01:35:52;;;;;;;12.93;6.70;;;9.50;96.70;;;;;;6184816;23;20016;-64
2023/12/24 01:51:04;;;;;;;12.18;7.10;;;9.70;96.70;;;;;;6177609;23;20016;-64
2023/12/24 01:53:36;;;;;;;13.80;7.57;;;9.80;96.70;;;;;;6179210;23;20047;-65
2023/12/24 02:18:10;;;;;;;13.10;7.07;;;9.90;96.70;;;;;;6179319;23;20036;-64
2023/12/24 02:20:59;;;;;;;14.73;8.15;;;9.80;96.70;;;;;;6090028;23;20026;-64
2023/12/24 02:23:30;;;;;;;12.15;7.40;;;9.80;96.70;;;;;;6119106;23;20032;-64
2023/12/24 02:26:19;;;;;;;;;;;;;;;;;;;;;
2023/12/24 02:29:23;;;;;;;11.05;7.32;;;9.80;96.70;;;;;;6090911;23;20654;-64
2023/12/24 02:32:41;;;;;;;15.27;7.63;;;9.70;96.70;;;;;;6024516;23;20530;-64
2023/12/24 02:36:01;;;;;;;13.68;7.35;;;9.70;96.70;;;;;;6004997;23;20493;-64
2023/12/24 02:39:19;;;;;;;11.40;7.07;;;9.60;96.70;;;;;;6033932;23;20050;-64
2023/12/24 02:41:48;;;;;;;12.60;6.55;;;9.60;96.70;;;;;;5987172;23;20031;-64
2023/12/24 02:44:42;;;;;;;16.15;7.95;;;9.50;96.70;;;;;;6033778;23;20023;-64
2023/12/24 02:47:38;;;;;;;14.55;7.68;;;9.50;96.70;;;;;;6017469;23;20376;-64
2023/12/24 02:59:53;;;;;;;;;;;;;;;;;;;;;
2023/12/24 03:10:54;;;;;;;;;;;;;;;;;;;;;
2023/12/24 03:13:28;;;;;;;12.95;8.65;;;9.00;96.70;;;;;;6004668;23;20023;-64
2023/12/24 03:28:26;;;;;;;10.40;6.88;;;8.90;96.70;;;;;;6089174;23;20058;-64
2023/12/24 03:30:56;;;;;;;13.73;7.60;;;8.90;96.70;;;;;;6080632;23;20050;-63
2023/12/24 03:42:22;;;;;;;13.77;8.10;;;8.90;96.70;;;;;;6212526;23;20084;-63
2023/12/24 03:48:53;;;;;;;13.13;7.80;;;8.80;96.70;;;;;;6050900;23;20092;-64
2023/12/24 03:52:22;;;;;;;14.13;9.18;;;8.70;96.70;;;;;;6059455;23;20038;-63
2023/12/24 03:59:28;;;;;;;14.82;9.43;;;8.60;96.70;;;;;;6004717;23;20121;-64
2023/12/24 04:03:31;;;;;;;11.55;7.63;;;8.60;96.70;;;;;;6004452;23;20100;-63
2023/12/24 04:10:38;;;;;;;20.88;11.90;;;8.60;96.70;;;;;;6034835;23;20051;-63
2023/12/24 04:13:20;;;;;;;15.75;9.88;;;8.50;96.70;;;;;;6184529;23;20030;-63
2023/12/24 04:15:50;;;;;;;15.50;8.93;;;8.60;96.70;;;;;;6159953;23;20404;-63
2023/12/24 04:18:21;;;;;;;15.70;9.32;;;8.60;96.70;;;;;;6185253;23;20021;-63
2023/12/24 04:21:33;;;;;;;24.38;13.82;;;8.50;96.70;;;;;;6118514;23;20122;-63
2023/12/24 04:28:45;;;;;;;16.85;10.45;;;8.40;96.70;;;;;;6119097;23;20097;-63
2023/12/24 04:31:15;;;;;;;18.30;9.65;;;8.40;96.70;;;;;;6176869;23;20025;-63
2023/12/24 04:34:22;;;;;;;20.05;9.95;;;8.30;96.70;;;;;;6148753;23;20081;-63
2023/12/24 04:37:40;;;;;;;;;;;;;;;;;;;;;
2023/12/24 04:41:05;;;;;;;15.45;9.05;;;8.30;96.70;;;;;;6211496;23;20031;-63
2023/12/24 04:52:39;;;;;;;;;;;;;;;;;;;;;
2023/12/24 04:56:11;;;;;;;14.18;8.32;;;8.40;96.70;;;;;;6208527;23;20114;-63
2023/12/24 04:58:53;;;;;;;13.07;8.32;;;8.40;96.70;;;;;;6184563;23;20021;-64
2023/12/24 05:01:36;;;;;;;14.85;8.23;;;8.40;96.70;;;;;;6212250;23;20088;-64
2023/12/24 05:04:06;;;;;;;14.02;8.70;;;8.40;96.70;;;;;;6185593;23;20333;-64
2023/12/24 05:06:35;;;;;;;14.98;8.68;;;8.40;96.70;;;;;;6160379;23;20028;-63
2023/12/24 05:09:52;;;;;;;;;;;;;;;;;;;;;
2023/12/24 05:13:25;;;;;;;12.20;7.07;;;8.40;96.70;;;;;;6211851;23;20626;-64
2023/12/24 05:20:41;;;;;;;15.20;8.13;;;8.50;96.70;;;;;;6211361;23;20012;-64
2023/12/24 05:23:58;;;;;;;;;;;;;;;;;;;;;
2023/12/24 05:40:20;;;;;;;13.13;7.15;;;8.50;96.70;;;;;;6120993;23;20015;-64
2023/12/24 05:43:40;;;;;;;12.73;7.20;;;8.40;96.70;;;;;;6053351;23;20181;-63
2023/12/24 05:46:22;;;;;;;;;;;;;;;;;;;;;
2023/12/24 05:48:53;;;;;;;17.35;7.88;;;8.50;96.70;;;;;;6121067;23;20346;-64
2023/12/24 06:04:05;;;;;;;10.73;7.40;;;8.50;96.70;;;;;;5979881;24;20031;-63
2023/12/24 06:19:35;;;;;;;;;;;;;;;;;;;;;
2023/12/24 06:23:23;;;;;;;11.10;7.72;;;8.60;96.70;;;;;;6007626;23;20645;-63
2023/12/24 06:27:04;;;;;;;12.30;6.88;;;8.70;96.70;;;;;;6055335;23;20106;-64
2023/12/24 06:30:19;;;;;;;10.38;6.85;;;8.70;96.70;;;;;;6091052;23;20369;-63
2023/12/24 06:33:23;;;;;;;8.23;5.95;;;8.70;96.70;;;;;;6131129;23;20198;-63
2023/12/24 06:36:40;;;;;;;7.22;6.15;;;8.70;96.70;;;;;;6148171;23;20380;-63
2023/12/24 06:43:06;;;;;;;14.48;7.35;;;8.80;96.70;;;;;;6243301;23;20046;-64
2023/12/24 06:45:51;;;;;;;11.68;6.80;;;8.70;96.70;;;;;;6242780;23;20043;-63
2023/12/24 06:48:24;;;;;;;10.48;6.95;;;8.70;96.70;;;;;;6217093;23;20034;-64
2023/12/24 07:00:17;;;;;;;29.58;17.38;;;8.80;96.70;;;;;;6242600;23;20019;-64
2023/12/24 07:02:48;;;;;;;;;;;8.80;96.70;;;;;;6216228;23;20031;-64
2023/12/24 07:09:31;;;;;;;15.25;8.35;;;8.80;96.70;;;;;;6235902;23;20032;-64
2023/12/24 07:18:21;;;;;;;20.60;11.00;;;8.90;96.70;;;;;;6148911;23;20052;-63
2023/12/24 07:21:06;;;;;;;14.77;9.80;;;8.80;96.70;;;;;;6146165;23;20026;-63
2023/12/24 07:27:24;;;;;;;14.65;8.40;;;8.90;96.70;;;;;;6147651;23;20108;-63
2023/12/24 07:30:25;;;;;;;12.65;7.72;;;9.00;96.70;;;;;;6095134;23;20224;-64
2023/12/24 07:33:13;;;;;;;10.60;7.30;;;8.90;96.70;;;;;;6175357;23;20026;-62
2023/12/24 07:35:55;;;;;;;12.90;7.00;;;9.00;96.70;;;;;;6212381;23;20029;-63
2023/12/24 07:38:29;;;;;;;12.73;7.47;;;9.00;96.70;;;;;;6185438;23;20359;-63
2023/12/24 07:41:26;;;;;;;11.18;7.07;;;9.10;96.70;;;;;;6211690;23;20021;-63
2023/12/24 07:44:42;;;;;;;14.35;8.35;;;9.10;96.70;;;;;;6161786;23;20100;-63
2023/12/24 07:46:57;;;;;;;12.82;8.60;;;9.10;96.70;;;;;;6197374;23;20025;-63
2023/12/24 07:50:12;;;;;;;13.35;8.57;;;9.10;96.70;;;;;;6185077;23;20024;-63
2023/12/24 07:52:19;;;;;;;11.52;8.48;;;9.20;96.70;;;;;;6166684;23;20127;-63
2023/12/24 07:54:51;;;;;;;13.73;8.68;;;9.20;96.70;;;;;;6211232;23;20017;-63
2023/12/24 07:57:21;;;;;;;13.57;9.23;;;9.30;96.70;;;;;;6184534;23;20020;-63
2023/12/24 07:59:52;;;;;;;14.88;9.18;;;9.30;96.70;;;;;;6185265;23;20040;-63
2023/12/24 08:03:13;;;;;;;11.73;8.07;;;9.40;96.70;;;;;;6204015;23;20460;-63
2023/12/24 08:05:43;;;;;;;13.45;8.15;;;9.40;96.70;;;;;;6185501;23;20020;-64
2023/12/24 08:08:12;;;;;;;13.40;8.10;;;9.50;96.70;;;;;;6211973;23;20099;-64
2023/12/24 08:11:31;;;;;;;12.13;7.20;;;9.50;96.70;;;;;;6211417;23;20074;-65
2023/12/24 08:14:06;;;;;;;11.20;6.85;;;9.50;96.70;;;;;;6211297;23;20051;-64
2023/12/24 08:16:35;;;;;;;13.63;7.03;;;9.60;96.70;;;;;;6184587;23;20020;-64
2023/12/24 08:19:05;;;;;;;13.00;7.47;;;9.60;96.70;;;;;;6210659;23;20070;-64
2023/12/24 08:21:34;;;;;;;11.55;6.82;;;9.70;96.70;;;;;;6211084;23;20040;-64
2023/12/24 08:24:04;;;;;;;12.20;7.65;;;9.70;96.70;;;;;;6211019;23;20088;-64
2023/12/24 08:26:43;;;;;;;;;;;;;;;;;;;;;
2023/12/24 08:29:24;;;;;;;15.10;10.38;;;9.80;96.70;;;;;;6211168;23;20051;-65
2023/12/24 08:31:55;;;;;;;11.48;6.65;;;9.70;96.70;;;;;;6210238;23;20044;-64
2023/12/24 08:34:32;;;;;;;12.73;7.25;;;9.80;96.70;;;;;;6210925;23;20028;-65
2023/12/24 08:37:40;;;;;;;12.35;7.10;;;9.80;96.70;;;;;;6211612;23;20063;-64
2023/12/24 08:40:10;;;;;;;12.52;7.53;;;9.90;96.70;;;;;;6211308;23;20027;-64
2023/12/24 08:42:39;;;;;;;13.73;8.00;;;9.90;96.70;;;;;;6185056;23;20024;-64
2023/12/24 08:45:12;;;;;;;11.68;8.30;;;9.90;96.70;;;;;;6211120;23;20494;-64
2023/12/24 08:47:41;;;;;;;11.40;7.70;;;9.90;96.70;;;;;;6185161;23;20027;-64
2023/12/24 08:50:11;;;;;;;17.05;11.43;;;10.00;96.70;;;;;;6183977;23;20020;-66
2023/12/24 08:52:40;;;;;;;14.07;8.52;;;10.00;96.70;;;;;;6211202;23;20095;-64
2023/12/24 08:55:10;;;;;;;16.98;8.65;;;10.10;96.70;;;;;;6211357;23;20419;-64
2023/12/24 08:58:01;;;;;;;12.65;8.57;;;10.10;96.70;;;;;;6209967;23;20031;-65
2023/12/24 09:00:33;;;;;;;16.98;9.23;;;10.10;96.70;;;;;;6211674;23;20020;-66
2023/12/24 09:03:02;;;;;;;22.70;10.48;;;10.20;96.70;;;;;;6178310;23;20044;-64
2023/12/24 09:05:32;;;;;;;13.68;8.55;;;10.20;96.70;;;;;;6212698;23;20395;-64
2023/12/24 09:08:01;;;;;;;60.70;40.72;;;10.20;96.70;;;;;;6213493;23;20016;-65
2023/12/24 09:11:17;;;;;;;26.77;14.38;;;10.30;96.70;;;;;;6199923;23;20024;-64
2023/12/24 09:17:10;;;;;;;17.02;10.00;;;10.40;96.70;;;;;;6211836;23;20027;-64
2023/12/24 09:19:46;;;;;;;16.52;10.23;;;10.50;96.70;;;;;;6213335;23;20784;-64
2023/12/24 09:22:15;;;;;;;16.60;10.07;;;10.60;96.70;;;;;;6212921;23;20035;-64
2023/12/24 09:24:44;;;;;;;15.63;8.90;;;10.60;96.70;;;;;;6213670;23;20036;-64
2023/12/24 09:27:19;;;;;;;18.98;9.27;;;10.70;96.70;;;;;;6212338;23;20066;-64
2023/12/24 09:29:51;;;;;;;15.43;8.88;;;10.70;96.70;;;;;;6211362;23;20098;-64
2023/12/24 09:32:21;;;;;;;21.75;10.02;;;10.80;96.70;;;;;;6213534;23;20147;-64
2023/12/24 09:38:46;;;;;;;12.93;8.23;;;10.90;96.70;;;;;;6205449;22;20035;-64
2023/12/24 09:41:19;;;;;;;14.70;8.07;;;11.00;96.70;;;;;;6212557;23;20052;-64
2023/12/24 09:44:22;;;;;;;14.80;8.55;;;11.00;96.70;;;;;;6142565;23;20460;-64
2023/12/24 09:47:35;;;;;;;17.95;9.32;;;11.00;96.70;;;;;;6146871;23;20824;-64
2023/12/24 09:50:30;;;;;;;18.67;8.75;;;11.00;96.70;;;;;;6124466;23;20025;-63
2023/12/24 09:53:49;;;;;;;13.57;7.47;;;11.00;96.70;;;;;;6150303;23;20100;-64
2023/12/24 09:56:56;;;;;;;15.82;7.75;;;11.00;96.70;;;;;;6006215;23;20038;-65
2023/12/24 09:59:25;;;;;;;12.85;6.85;;;11.10;96.70;;;;;;6135380;23;20033;-63
2023/12/24 10:02:09;;;;;;;16.55;7.90;;;11.10;96.70;;;;;;6151170;23;20137;-64
2023/12/24 10:04:41;;;;;;;16.90;7.88;;;11.10;96.70;;;;;;6149706;23;20500;-64
2023/12/24 10:07:10;;;;;;;13.10;6.53;;;11.10;96.70;;;;;;6148126;23;20029;-64
2023/12/24 10:09:43;;;;;;;13.40;6.55;;;11.10;96.70;;;;;;6149074;23;20128;-65
2023/12/24 10:12:15;;;;;;;11.73;6.55;;;11.20;96.70;;;;;;6149088;23;20025;-66
2023/12/24 10:14:58;;;;;;;11.25;7.57;;;11.20;96.70;;;;;;6149561;23;20104;-67
2023/12/24 10:17:31;;;;;;;16.15;8.43;;;11.30;96.70;;;;;;6149400;23;20026;-65
2023/12/24 10:20:39;;;;;;;17.13;7.53;;;11.30;96.70;;;;;;6153274;23;20032;-65
2023/12/24 10:23:08;;;;;;;15.82;7.03;;;11.30;96.70;;;;;;6240983;23;20070;-66
2023/12/24 10:31:07;;;;;;;12.40;6.32;;;11.40;96.70;;;;;;6237503;23;20008;-67
2023/12/24 10:33:38;;;;;;;14.00;6.53;;;11.50;96.70;;;;;;6216236;23;20016;-67
2023/12/24 10:36:13;;;;;;;11.77;6.50;;;11.50;96.70;;;;;;6215371;23;20020;-65
2023/12/24 10:38:43;;;;;;;16.92;7.57;;;11.60;96.70;;;;;;6242595;23;20020;-70
2023/12/24 10:41:12;;;;;;;13.65;6.82;;;11.60;96.70;;;;;;6243159;23;20074;-67
2023/12/24 10:43:41;;;;;;;13.60;7.15;;;11.70;96.70;;;;;;6242512;23;20493;-64
2023/12/24 10:46:10;;;;;;;13.43;7.55;;;11.80;96.70;;;;;;6242292;23;20050;-64
2023/12/24 10:48:38;;;;;;;10.90;6.03;;;11.90;96.70;;;;;;6243036;23;20455;-70
2023/12/24 10:51:07;;;;;;;12.95;6.57;;;12.00;96.70;;;;;;6242418;23;20481;-66
2023/12/24 10:53:41;;;;;;;12.27;6.35;;;12.10;96.70;;;;;;6242441;23;20028;-69
2023/12/24 10:56:19;;;;;;;14.55;6.72;;;12.10;96.70;;;;;;6215112;23;20046;-70
2023/12/24 10:58:54;;;;;;;11.25;6.50;;;12.20;96.70;;;;;;6243197;23;20040;-67
2023/12/24 11:01:23;;;;;;;17.75;7.47;;;12.30;96.70;;;;;;6242551;23;20028;-70
2023/12/24 11:03:53;;;;;;;11.57;6.97;;;12.40;96.70;;;;;;6242063;23;20482;-65
2023/12/24 11:06:47;;;;;;;15.85;7.57;;;12.50;96.70;;;;;;6215282;23;20043;-72
2023/12/24 11:09:48;;;;;;;13.00;6.95;;;12.70;96.70;;;;;;6239235;23;20051;-67
2023/12/24 11:12:32;;;;;;;17.33;7.45;;;12.80;96.70;;;;;;6147905;23;20030;-68
2023/12/24 11:15:01;;;;;;;19.13;8.30;;;12.80;96.70;;;;;;6148561;23;20096;-70
2023/12/24 11:17:48;;;;;;;19.15;8.43;;;12.90;96.70;;;;;;6149021;23;20029;-65
2023/12/24 11:20:40;;;;;;;18.73;7.57;;;13.00;96.70;;;;;;6148228;23;20389;-66
2023/12/24 11:23:12;;;;;;;10.43;6.60;;;13.10;96.70;;;;;;6148578;23;20026;-67
2023/12/24 11:25:44;;;;;;;14.70;7.15;;;13.20;96.70;;;;;;6123970;23;20045;-65
2023/12/24 11:28:35;;;;;;;16.38;9.35;;;13.30;96.70;;;;;;6146788;23;20484;-65
2023/12/24 11:31:07;;;;;;;16.48;10.85;;;13.30;96.70;;;;;;6148693;23;20033;-65
2023/12/24 11:33:47;;;;;;;18.85;10.63;;;13.40;96.70;;;;;;6144756;23;20036;-66
2023/12/24 11:36:18;;;;;;;22.50;11.43;;;13.60;96.70;;;;;;6147597;23;20045;-67
2023/12/24 11:38:48;;;;;;;28.33;11.65;;;13.60;96.70;;;;;;6100016;23;20680;-65
2023/12/24 11:41:23;;;;;;;15.95;10.57;;;13.70;96.70;;;;;;6148089;23;20076;-64
2023/12/24 11:43:57;;;;;;;17.95;10.15;;;13.80;96.70;;;;;;6122705;23;20524;-64
2023/12/24 11:46:27;;;;;;;17.95;9.88;;;13.80;96.70;;;;;;6153792;23;20040;-65
2023/12/24 11:49:02;;;;;;;17.85;9.48;;;14.00;96.70;;;;;;6185569;23;20052;-67
2023/12/24 11:51:31;;;;;;;18.10;10.02;;;14.00;96.70;;;;;;6184148;23;20040;-67
2023/12/24 11:54:06;;;;;;;15.85;10.82;;;14.00;96.70;;;;;;6211063;23;20086;-66
2023/12/24 11:56:38;;;;;;;18.70;9.25;;;14.10;96.70;;;;;;6211160;23;20024;-67
2023/12/24 11:59:07;;;;;;;18.30;9.73;;;14.20;96.70;;;;;;6184230;23;20021;-68
2023/12/24 12:01:36;;;;;;;16.92;10.75;;;14.20;96.70;;;;;;6211029;23;20031;-66
2023/12/24 12:04:06;;;;;;;18.23;9.63;;;14.20;96.70;;;;;;6159302;23;20345;-66
2023/12/24 12:06:36;;;;;;;15.77;8.75;;;14.20;96.70;;;;;;6184144;23;20107;-66
2023/12/24 12:09:10;;;;;;;20.83;9.25;;;14.30;96.70;;;;;;6211049;23;20873;-69
2023/12/24 12:11:43;;;;;;;17.23;8.13;;;14.30;96.70;;;;;;6185141;23;20071;-65
2023/12/24 12:14:12;;;;;;;13.82;7.88;;;14.30;96.70;;;;;;6209033;23;20020;-66
2023/12/24 12:16:43;;;;;;;15.35;7.68;;;14.20;96.70;;;;;;6209395;23;20020;-68
2023/12/24 12:19:14;;;;;;;15.73;9.35;;;14.20;96.70;;;;;;6158471;23;20024;-69
2023/12/24 12:21:44;;;;;;;19.95;8.02;;;14.20;96.70;;;;;;6208590;23;20017;-67
2023/12/24 12:43:20;;;;;;;19.38;9.45;;;14.10;96.70;;;;;;6121284;23;20088;-77
2023/12/24 12:45:49;;;;;;;19.65;8.90;;;14.00;96.70;;;;;;6118907;23;20097;-75
2023/12/24 12:48:20;;;;;;;18.23;8.48;;;14.00;96.70;;;;;;6095001;23;20032;-76
2023/12/24 12:50:50;;;;;;;16.15;8.20;;;14.00;96.70;;;;;;6095132;23;20030;-73
2023/12/24 12:53:25;;;;;;;16.00;8.32;;;14.00;96.70;;;;;;6095024;23;20032;-75
2023/12/24 12:59:45;;;;;;;16.17;6.82;;;14.10;96.70;;;;;;6089203;23;20030;-72
2023/12/24 13:02:25;;;;;;;13.88;8.02;;;14.00;96.70;;;;;;6095879;23;20155;-75
2023/12/24 13:05:51;;;;;;;16.48;8.93;;;14.00;96.70;;;;;;6119415;23;20362;-76
2023/12/24 13:08:36;;;;;;;17.92;8.20;;;14.00;96.70;;;;;;6095491;23;20370;-76
2023/12/24 13:11:22;;;;;;;16.95;8.75;;;14.00;96.70;;;;;;6096330;23;20022;-76
2023/12/24 13:14:05;;;;;;;16.40;8.43;;;14.00;96.70;;;;;;6094744;23;20026;-76
2023/12/24 13:16:36;;;;;;;17.25;8.18;;;14.10;96.70;;;;;;6119226;23;20026;-74
2023/12/24 13:19:15;;;;;;;18.95;9.20;;;14.30;96.70;;;;;;6095475;23;20040;-73
2023/12/24 13:21:53;;;;;;;20.35;8.50;;;14.60;96.70;;;;;;6118380;23;20030;-73
2023/12/24 13:24:35;;;;;;;19.48;10.27;;;14.80;96.70;;;;;;6097594;23;20383;-76
2023/12/24 13:27:04;;;;;;;19.63;10.30;;;14.90;96.70;;;;;;6095592;23;20030;-75
2023/12/24 13:29:35;;;;;;;17.85;10.02;;;15.00;96.70;;;;;;6095644;23;20055;-75
2023/12/24 13:32:09;;;;;;;15.68;9.48;;;14.90;96.70;;;;;;6095013;23;20040;-73
2023/12/24 13:34:51;;;;;;;15.63;9.93;;;14.80;96.70;;;;;;6115534;23;20022;-74
2023/12/24 13:37:23;;;;;;;19.80;10.52;;;14.70;96.70;;;;;;6093381;23;20048;-75
2023/12/24 13:39:51;;;;;;;17.45;11.25;;;14.60;96.70;;;;;;6094134;23;20033;-75
2023/12/24 13:42:29;;;;;;;17.80;9.95;;;14.50;96.70;;;;;;6094122;23;20057;-75
2023/12/24 13:45:18;;;;;;;17.73;10.15;;;14.40;96.70;;;;;;6118675;23;20028;-76
2023/12/24 13:47:50;;;;;;;18.35;10.27;;;14.40;96.70;;;;;;6095159;23;20033;-74
2023/12/24 13:50:20;;;;;;;21.70;10.32;;;14.40;96.70;;;;;;6096824;23;20042;-73
2023/12/24 13:52:49;;;;;;;17.73;9.98;;;14.40;96.70;;;;;;6097668;23;20025;-73
2023/12/24 13:55:29;;;;;;;18.65;10.57;;;14.40;96.70;;;;;;6096899;23;20832;-73
2023/12/24 13:57:58;;;;;;;17.42;11.38;;;14.40;96.70;;;;;;6121012;23;20077;-72
2023/12/24 14:00:28;;;;;;;23.65;11.90;;;14.40;96.70;;;;;;6097937;23;20049;-76
2023/12/24 14:02:58;;;;;;;18.02;9.88;;;14.50;96.70;;;;;;6097221;23;20022;-72
2023/12/24 14:05:30;;;;;;;19.02;9.82;;;14.50;96.70;;;;;;6094832;23;20490;-75
2023/12/24 14:07:59;;;;;;;18.15;9.00;;;14.40;96.70;;;;;;6121372;23;20073;-77
2023/12/24 14:10:27;;;;;;;16.95;8.65;;;14.40;96.70;;;;;;6097277;23;20021;-76
2023/12/24 14:12:56;;;;;;;17.08;8.23;;;14.40;96.70;;;;;;6095601;23;20029;-74
2023/12/24 14:18:26;;;;;;;17.50;8.82;;;14.30;96.70;;;;;;6120452;23;20489;-76
2023/12/24 14:20:54;;;;;;;14.80;8.32;;;14.30;96.70;;;;;;6121604;23;20026;-77
2023/12/24 14:23:23;;;;;;;13.20;7.63;;;14.30;96.70;;;;;;6097426;23;20068;-74
2023/12/24 14:25:52;;;;;;;14.57;7.78;;;14.30;96.70;;;;;;6096461;23;20017;-74
2023/12/24 14:28:20;;;;;;;14.30;7.20;;;14.20;96.70;;;;;;6121654;23;20034;-75
2023/12/24 14:30:50;;;;;;;13.30;7.13;;;14.20;96.70;;;;;;6121218;23;20032;-73
2023/12/24 14:33:18;;;;;;;17.65;7.13;;;14.20;96.70;;;;;;6119881;23;20041;-73
2023/12/24 14:35:49;;;;;;;16.50;7.68;;;14.20;96.70;;;;;;6120557;23;20076;-91
2023/12/24 14:51:13;;;;;;;18.15;9.18;;;14.20;96.70;;;;;;5817615;22;20047;-80
2023/12/24 14:53:41;;;;;;;17.88;9.30;;;14.20;96.70;;;;;;6217815;23;20074;-81
2023/12/24 14:56:13;;;;;;;20.95;13.43;;;14.10;96.70;;;;;;6218281;23;20074;-83
2023/12/24 14:58:42;;;;;;;36.72;26.73;;;14.10;96.70;;;;;;6218635;23;20020;-80
2023/12/24 15:01:16;;;;;;;35.38;22.90;;;14.00;96.70;;;;;;6216515;23;20027;-80
2023/12/24 15:03:48;;;;;;;35.08;20.55;;;14.00;96.70;;;;;;6218548;23;20030;-82
2023/12/24 15:06:30;;;;;;;28.45;18.15;;;14.00;96.70;;;;;;6217299;23;20553;-81
2023/12/24 15:09:08;;;;;;;39.00;25.95;;;14.00;96.70;;;;;;6243007;23;20110;-82
2023/12/24 15:11:42;;;;;;;;;;;13.90;96.70;;;;;;6220409;23;20024;-82
2023/12/24 15:14:10;;;;;;;34.17;18.90;;;13.90;96.70;;;;;;6218217;23;19927;-80
2023/12/24 15:16:38;;;;;;;34.13;25.42;;;13.90;96.70;;;;;;6216404;23;20042;-80
2023/12/24 15:19:23;;;;;;;47.25;35.28;;;13.90;96.70;;;;;;6217748;23;20486;-77
2023/12/24 15:22:22;;;;;;;56.75;42.08;;;13.90;96.70;;;;;;6242284;23;20035;-78
2023/12/24 15:24:51;;;;;;;54.72;48.30;;;13.90;96.70;;;;;;6241215;23;20030;-78
2023/12/24 15:27:21;;;;;;;38.08;21.88;;;13.90;96.70;;;;;;6215947;23;20016;-78
2023/12/24 15:30:24;;;;;;;28.05;16.45;;;13.90;96.70;;;;;;6240599;23;20111;-76
2023/12/24 15:33:23;;;;;;;33.47;16.52;;;13.90;96.70;;;;;;6239148;23;20023;-76
2023/12/24 15:36:12;;;;;;;29.02;12.82;;;13.90;96.70;;;;;;6215555;23;20111;-77
2023/12/24 15:39:03;;;;;;;28.70;12.25;;;13.90;96.70;;;;;;6216618;23;20048;-76
2023/12/24 15:41:38;;;;;;;24.08;9.88;;;13.90;96.70;;;;;;6241782;23;20020;-77
2023/12/24 15:45:03;;;;;;;30.25;10.40;;;13.90;96.70;;;;;;6241949;23;20039;-77
2023/12/24 15:47:35;;;;;;;22.67;8.93;;;13.90;96.70;;;;;;6240568;23;20027;-77
2023/12/24 15:57:41;;;;;;;22.60;6.13;;;13.90;96.70;;;;;;6176991;23;20365;-77
2023/12/24 16:00:27;;;;;;;27.55;7.60;;;13.90;96.70;;;;;;6161921;23;20044;-77
2023/12/24 16:03:29;;;;;;;19.92;7.10;;;13.80;96.70;;;;;;6162152;23;20086;-77
2023/12/24 16:07:07;;;;;;;27.20;7.80;;;13.80;96.70;;;;;;6192136;23;20027;-76
2023/12/24 16:14:20;;;;;;;28.45;7.90;;;13.80;96.70;;;;;;6057369;23;20026;-77
2023/12/24 16:17:23;;;;;;;23.33;7.15;;;13.80;96.70;;;;;;5974861;23;20106;-76
2023/12/24 16:20:21;;;;;;;22.92;8.10;;;13.80;96.70;;;;;;5920673;24;20040;-79
2023/12/24 16:22:50;;;;;;;32.50;9.43;;;13.70;96.70;;;;;;5952722;23;20037;-79
2023/12/24 16:25:19;;;;;;;21.90;7.70;;;13.70;96.70;;;;;;6066069;23;20029;-78
2023/12/24 16:27:47;;;;;;;27.75;8.27;;;13.60;96.70;;;;;;6065845;23;20053;-78
2023/12/24 16:30:21;;;;;;;52.72;24.80;;;13.60;96.70;;;;;;6067033;23;20033;-78
2023/12/24 16:33:27;;;;;;;27.90;10.10;;;13.60;96.70;;;;;;6042168;23;20023;-78
2023/12/24 16:36:25;;;;;;;26.05;8.52;;;13.60;96.70;;;;;;6066494;23;20033;-77
2023/12/24 16:44:25;;;;;;;26.48;8.05;;;13.60;96.70;;;;;;6022086;23;20026;-79
2023/12/24 16:51:04;;;;;;;25.98;7.68;;;13.60;96.70;;;;;;6080896;23;20045;-78
2023/12/24 16:53:33;;;;;;;25.17;7.75;;;13.60;96.70;;;;;;6095124;23;20026;-78
2023/12/24 16:56:17;;;;;;;;;;;;;;;;;;;;;
2023/12/24 16:58:51;;;;;;;27.50;9.77;;;13.60;96.70;;;;;;6096378;23;20026;-78
2023/12/24 17:01:20;;;;;;;25.02;9.00;;;13.60;96.70;;;;;;6071098;23;20026;-78
2023/12/24 17:08:01;;;;;;;23.30;7.13;;;13.50;96.70;;;;;;6086411;23;20025;-78
2023/12/24 17:14:49;;;;;;;28.17;8.50;;;13.50;96.70;;;;;;6061005;23;20026;-79
2023/12/24 17:17:53;;;;;;;27.42;10.18;;;13.50;96.70;;;;;;6042513;23;20078;-77
2023/12/24 17:20:22;;;;;;;21.60;7.25;;;13.50;96.70;;;;;;6036325;23;20497;-78
2023/12/24 17:23:16;;;;;;;23.80;9.18;;;13.50;96.70;;;;;;6060894;23;20026;-78
2023/12/24 17:29:47;;;;;;;39.05;28.60;;;13.50;96.70;;;;;;6004003;23;20019;-78
2023/12/24 17:32:57;;;;;;;60.53;41.97;;;13.50;96.70;;;;;;5982209;23;20039;-77
2023/12/24 17:36:19;;;;;;;;;;;;;;;;;;;;;
2023/12/24 18:03:11;;;;;;;26.48;11.20;;;13.40;96.70;;;;;;6173271;23;20346;-79
2023/12/24 18:13:54;;;;;;;23.48;9.20;;;13.40;96.70;;;;;;6199452;23;20024;-79
2023/12/24 18:16:24;;;;;;;23.17;8.60;;;13.40;96.70;;;;;;6213331;23;20020;-81
2023/12/24 18:19:42;;;;;;;21.67;8.52;;;13.30;96.70;;;;;;6213388;23;20454;-83
2023/12/24 18:30:18;;;;;;;24.83;8.93;;;13.30;96.70;;;;;;6214004;23;20466;-82
2023/12/24 18:32:48;;;;;;;34.92;13.82;;;13.30;96.70;;;;;;6241854;23;20046;-82
2023/12/24 18:35:17;;;;;;;20.05;7.88;;;13.30;96.70;;;;;;6190062;23;20024;-82
2023/12/24 18:37:45;;;;;;;28.45;11.38;;;13.30;96.70;;;;;;6190600;23;20020;-82
2023/12/24 18:40:14;;;;;;;27.88;13.05;;;13.40;96.70;;;;;;6190527;23;20031;-82
2023/12/24 18:42:42;;;;;;;30.63;14.95;;;13.30;96.70;;;;;;6215251;23;20035;-83
2023/12/24 18:45:10;;;;;;;39.67;16.95;;;13.40;96.70;;;;;;6215589;23;20031;-82
2023/12/24 18:47:38;;;;;;;38.05;16.77;;;13.30;96.70;;;;;;6215298;23;20099;-82
2023/12/24 18:50:39;;;;;;;28.60;13.63;;;13.40;96.70;;;;;;6189903;23;20379;-82
2023/12/24 18:58:31;;;;;;;;;;;;;;;;;;;;;
2023/12/24 19:01:49;;;;;;;24.92;10.30;;;13.30;96.70;;;;;;5944867;24;20425;-81
2023/12/24 19:04:30;;;;;;;31.48;13.18;;;13.30;96.70;;;;;;5925016;24;20088;-81
2023/12/24 19:11:50;;;;;;;29.85;14.18;;;13.30;96.70;;;;;;6003961;23;20365;-81
2023/12/24 19:14:54;;;;;;;38.63;16.35;;;13.30;96.70;;;;;;6018649;23;20094;-81
2023/12/24 19:18:09;;;;;;;30.98;15.52;;;13.30;96.70;;;;;;6008128;23;20028;-81
2023/12/24 19:21:35;;;;;;;29.00;13.48;;;13.30;96.70;;;;;;6018415;23;20062;-81
2023/12/24 19:28:37;;;;;;;32.58;13.60;;;13.30;96.70;;;;;;6089466;23;20122;-81
2023/12/24 19:31:08;;;;;;;27.05;13.57;;;13.20;96.70;;;;;;6087904;23;20030;-81
2023/12/24 19:33:37;;;;;;;28.85;13.55;;;13.20;96.70;;;;;;6110456;23;20087;-81
2023/12/24 19:43:11;;;;;;;33.10;15.25;;;13.20;96.70;;;;;;5106648;27;20121;-82
2023/12/24 19:45:40;;;;;;;38.72;19.63;;;13.10;96.70;;;;;;5072401;28;20063;-82
2023/12/24 19:48:09;;;;;;;46.38;24.85;;;13.10;96.70;;;;;;5077935;28;20044;-82
2023/12/24 19:50:39;;;;;;;41.30;18.73;;;13.00;96.70;;;;;;5102281;28;20072;-82
2023/12/24 19:53:17;;;;;;;44.97;23.02;;;13.10;96.70;;;;;;5087057;28;20055;-81
2023/12/24 19:56:16;;;;;;;40.13;19.15;;;13.00;96.70;;;;;;5094847;28;20047;-82
2023/12/24 19:58:50;;;;;;;35.85;18.67;;;13.10;96.70;;;;;;5071790;28;20460;-82